sensor_id;sensor_type;location;lat;lon;timestamp;pressure;altitude;pressure_sealevel;temperature;humidity
74613;BME280;63119;51.788;8.824;2023-02-15T00:01:46;101423.44;;;2.59;78.37
74613;BME280;63119;51.788;8.824;2023-02-15T00:04:13;101425.16;;;2.63;77.69
74613;BME280;63119;51.788;8.824;2023-02-15T00:06:39;101418.28;;;2.53;78.63
74613;BME280;63119;51.788;8.824;2023-02-15T00:09:04;101416.47;;;2.59;78.41
74613;BME280;63119;51.788;8.824;2023-02-15T00:11:30;101416.41;;;2.67;77.78
74613;BME280;63119;51.788;8.824;2023-02-15T00:14:18;101416.47;;;2.61;77.95
74613;BME280;63119;51.788;8.824;2023-02-15T00:16:44;101413.06;;;2.54;77.64
74613;BME280;63119;51.788;8.824;2023-02-15T00:19:10;101405.16;;;2.60;78.30
74613;BME280;63119;51.788;8.824;2023-02-15T00:21:37;101412.94;;;2.62;79.04
74613;BME280;63119;51.788;8.824;2023-02-15T00:24:04;101411.31;;;2.55;78.19
74613;BME280;63119;51.788;8.824;2023-02-15T00:26:31;101407.38;;;2.19;79.80
74613;BME280;63119;51.788;8.824;2023-02-15T00:28:57;101414.44;;;2.11;81.07
74613;BME280;63119;51.788;8.824;2023-02-15T00:31:27;101407.22;;;2.31;79.47
74613;BME280;63119;51.788;8.824;2023-02-15T00:33:53;101398.53;;;2.32;79.29
74613;BME280;63119;51.788;8.824;2023-02-15T00:36:18;101398.53;;;2.34;79.50
74613;BME280;63119;51.788;8.824;2023-02-15T00:38:44;101402.16;;;2.20;78.68
74613;BME280;63119;51.788;8.824;2023-02-15T00:41:09;101402.22;;;2.13;78.93
74613;BME280;63119;51.788;8.824;2023-02-15T00:43:36;101398.78;;;2.12;79.25
74613;BME280;63119;51.788;8.824;2023-02-15T00:46:03;101394.69;;;1.86;81.01
74613;BME280;63119;51.788;8.824;2023-02-15T00:48:28;101393.03;;;1.79;81.52
74613;BME280;63119;51.788;8.824;2023-02-15T00:50:58;101392.16;;;1.78;82.25
74613;BME280;63119;51.788;8.824;2023-02-15T00:53:25;101392.19;;;1.75;81.89
74613;BME280;63119;51.788;8.824;2023-02-15T00:55:50;101390.19;;;1.98;80.87
74613;BME280;63119;51.788;8.824;2023-02-15T00:58:16;101390.94;;;2.11;79.74
74613;BME280;63119;51.788;8.824;2023-02-15T01:00:43;101389.09;;;2.19;78.63
74613;BME280;63119;51.788;8.824;2023-02-15T01:03:09;101393.50;;;2.15;78.82
74613;BME280;63119;51.788;8.824;2023-02-15T01:05:35;101386.63;;;2.08;79.41
74613;BME280;63119;51.788;8.824;2023-02-15T01:08:00;101381.38;;;2.11;78.80
74613;BME280;63119;51.788;8.824;2023-02-15T01:10:26;101376.19;;;2.08;78.85
74613;BME280;63119;51.788;8.824;2023-02-15T01:12:53;101374.56;;;1.97;79.50
74613;BME280;63119;51.788;8.824;2023-02-15T01:15:18;101377.97;;;2.03;78.99
74613;BME280;63119;51.788;8.824;2023-02-15T01:17:44;101376.38;;;1.90;78.75
74613;BME280;63119;51.788;8.824;2023-02-15T01:20:14;101376.34;;;1.92;78.98
74613;BME280;63119;51.788;8.824;2023-02-15T01:22:40;101380.72;;;1.91;79.08
74613;BME280;63119;51.788;8.824;2023-02-15T01:25:05;101377.25;;;1.91;80.27
74613;BME280;63119;51.788;8.824;2023-02-15T01:27:30;101380.75;;;1.88;79.10
74613;BME280;63119;51.788;8.824;2023-02-15T01:29:56;101376.38;;;1.90;78.45
74613;BME280;63119;51.788;8.824;2023-02-15T01:32:21;101374.75;;;1.77;80.26
74613;BME280;63119;51.788;8.824;2023-02-15T01:34:46;101371.44;;;1.61;81.66
74613;BME280;63119;51.788;8.824;2023-02-15T01:37:12;101369.78;;;1.54;81.92
74613;BME280;63119;51.788;8.824;2023-02-15T01:39:37;101365.47;;;1.50;81.94
74613;BME280;63119;51.788;8.824;2023-02-15T01:42:02;101365.44;;;1.55;81.71
74613;BME280;63119;51.788;8.824;2023-02-15T01:44:53;101363.69;;;1.52;81.56
74613;BME280;63119;51.788;8.824;2023-02-15T01:47:34;101357.78;;;1.35;81.86
74613;BME280;63119;51.788;8.824;2023-02-15T01:50:12;101357.81;;;1.34;82.99
74613;BME280;63119;51.788;8.824;2023-02-15T01:52:41;101355.06;;;1.47;81.92
74613;BME280;63119;51.788;8.824;2023-02-15T01:55:08;101351.44;;;1.62;81.49
74613;BME280;63119;51.788;8.824;2023-02-15T01:57:34;101350.50;;;1.69;80.97
74613;BME280;63119;51.788;8.824;2023-02-15T02:00:02;101353.06;;;1.75;80.48
74613;BME280;63119;51.788;8.824;2023-02-15T02:02:28;101347.78;;;1.77;80.02
74613;BME280;63119;51.788;8.824;2023-02-15T02:05:01;101354.88;;;1.67;80.68
74613;BME280;63119;51.788;8.824;2023-02-15T02:07:36;101344.59;;;1.52;80.59
74613;BME280;63119;51.788;8.824;2023-02-15T02:10:04;101346.31;;;1.50;81.14
74613;BME280;63119;51.788;8.824;2023-02-15T02:12:30;101352.56;;;1.37;81.61
74613;BME280;63119;51.788;8.824;2023-02-15T02:14:55;101337.72;;;1.40;81.82
74613;BME280;63119;51.788;8.824;2023-02-15T02:17:36;101338.41;;;1.59;81.04
74613;BME280;63119;51.788;8.824;2023-02-15T02:20:16;101344.47;;;1.64;80.02
74613;BME280;63119;51.788;8.824;2023-02-15T02:25:50;101328.00;;;1.56;79.48
74613;BME280;63119;51.788;8.824;2023-02-15T02:31:22;101333.16;;;1.63;80.98
74613;BME280;63119;51.788;8.824;2023-02-15T02:34:08;101324.56;;;1.54;80.65
74613;BME280;63119;51.788;8.824;2023-02-15T02:36:59;101318.56;;;1.46;80.41
74613;BME280;63119;51.788;8.824;2023-02-15T02:39:40;101327.41;;;1.28;81.48
74613;BME280;63119;51.788;8.824;2023-02-15T02:44:41;101317.03;;;1.24;81.33
74613;BME280;63119;51.788;8.824;2023-02-15T02:49:43;101316.97;;;1.30;80.30
74613;BME280;63119;51.788;8.824;2023-02-15T02:52:43;101307.56;;;1.10;81.85
74613;BME280;63119;51.788;8.824;2023-02-15T02:55:16;101307.56;;;1.10;81.51
74613;BME280;63119;51.788;8.824;2023-02-15T02:57:54;101298.94;;;1.05;81.70
74613;BME280;63119;51.788;8.824;2023-02-15T03:00:23;101298.91;;;1.08;81.99
74613;BME280;63119;51.788;8.824;2023-02-15T03:02:55;101295.47;;;1.03;81.78
74613;BME280;63119;51.788;8.824;2023-02-15T03:05:27;101300.66;;;1.06;82.08
74613;BME280;63119;51.788;8.824;2023-02-15T03:07:54;101289.34;;;1.07;81.17
74613;BME280;63119;51.788;8.824;2023-02-15T03:10:23;101296.44;;;0.93;81.94
74613;BME280;63119;51.788;8.824;2023-02-15T03:12:49;101291.31;;;0.81;83.39
74613;BME280;63119;51.788;8.824;2023-02-15T03:15:22;101292.00;;;1.01;82.08
74613;BME280;63119;51.788;8.824;2023-02-15T03:17:53;101292.03;;;0.98;81.92
74613;BME280;63119;51.788;8.824;2023-02-15T03:20:28;101287.69;;;0.99;81.24
74613;BME280;63119;51.788;8.824;2023-02-15T03:22:55;101282.41;;;1.06;81.35
74613;BME280;63119;51.788;8.824;2023-02-15T03:25:26;101287.56;;;1.14;80.81
74613;BME280;63119;51.788;8.824;2023-02-15T03:27:55;101282.38;;;1.09;80.39
74613;BME280;63119;51.788;8.824;2023-02-15T03:30:24;101279.78;;;1.06;80.33
74613;BME280;63119;51.788;8.824;2023-02-15T03:32:51;101278.94;;;1.09;80.70
74613;BME280;63119;51.788;8.824;2023-02-15T03:35:21;101283.22;;;1.15;80.67
74613;BME280;63119;51.788;8.824;2023-02-15T03:37:53;101291.25;;;0.90;80.82
74613;BME280;63119;51.788;8.824;2023-02-15T03:40:32;101279.97;;;0.85;81.74
74613;BME280;63119;51.788;8.824;2023-02-15T03:43:48;101280.84;;;0.86;81.91
74613;BME280;63119;51.788;8.824;2023-02-15T03:46:23;101274.75;;;0.85;81.65
74613;BME280;63119;51.788;8.824;2023-02-15T03:48:55;101280.13;;;0.66;82.25
74613;BME280;63119;51.788;8.824;2023-02-15T03:51:26;101278.41;;;0.66;82.12
74613;BME280;63119;51.788;8.824;2023-02-15T03:54:01;101279.22;;;0.73;82.06
74613;BME280;63119;51.788;8.824;2023-02-15T03:56:27;101278.28;;;0.81;81.18
74613;BME280;63119;51.788;8.824;2023-02-15T03:58:52;101278.31;;;0.78;81.14
74613;BME280;63119;51.788;8.824;2023-02-15T04:01:40;101273.22;;;0.63;81.59
74613;BME280;63119;51.788;8.824;2023-02-15T04:04:28;101272.31;;;0.66;81.86
74613;BME280;63119;51.788;8.824;2023-02-15T04:06:56;101278.25;;;0.84;81.57
74613;BME280;63119;51.788;8.824;2023-02-15T04:09:22;101272.19;;;0.84;81.49
74613;BME280;63119;51.788;8.824;2023-02-15T04:12:06;101277.44;;;0.76;80.95
74613;BME280;63119;51.788;8.824;2023-02-15T04:14:31;101274.78;;;0.84;81.41
74613;BME280;63119;51.788;8.824;2023-02-15T04:17:15;101275.66;;;0.84;81.25
74613;BME280;63119;51.788;8.824;2023-02-15T04:19:40;101271.34;;;0.80;81.40
74613;BME280;63119;51.788;8.824;2023-02-15T04:22:24;101270.47;;;0.81;81.32
74613;BME280;63119;51.788;8.824;2023-02-15T04:25:08;101264.44;;;0.73;81.78
74613;BME280;63119;51.788;8.824;2023-02-15T04:27:41;101263.66;;;0.64;82.01
74613;BME280;63119;51.788;8.824;2023-02-15T04:30:08;101266.22;;;0.68;81.93
74613;BME280;63119;51.788;8.824;2023-02-15T04:32:34;101262.84;;;0.57;82.78
74613;BME280;63119;51.788;8.824;2023-02-15T04:34:59;101258.50;;;0.53;82.46
74613;BME280;63119;51.788;8.824;2023-02-15T04:37:25;101249.00;;;0.46;82.79
74613;BME280;63119;51.788;8.824;2023-02-15T04:39:50;101253.34;;;0.48;82.77
74613;BME280;63119;51.788;8.824;2023-02-15T04:42:15;101251.53;;;0.58;82.37
74613;BME280;63119;51.788;8.824;2023-02-15T04:44:41;101249.78;;;0.59;82.14
74613;BME280;63119;51.788;8.824;2023-02-15T04:47:07;101243.84;;;0.37;81.88
74613;BME280;63119;51.788;8.824;2023-02-15T04:49:32;101250.75;;;0.47;82.34
74613;BME280;63119;51.788;8.824;2023-02-15T04:51:57;101243.75;;;0.53;82.35
74613;BME280;63119;51.788;8.824;2023-02-15T04:54:23;101238.50;;;0.60;81.92
74613;BME280;63119;51.788;8.824;2023-02-15T04:56:48;101242.00;;;0.57;82.06
74613;BME280;63119;51.788;8.824;2023-02-15T04:59:13;101232.41;;;0.62;81.24
74613;BME280;63119;51.788;8.824;2023-02-15T05:01:38;101231.69;;;0.42;81.11
74613;BME280;63119;51.788;8.824;2023-02-15T05:04:04;101231.78;;;0.30;84.01
74613;BME280;63119;51.788;8.824;2023-02-15T05:06:29;101229.06;;;0.43;83.34
74613;BME280;63119;51.788;8.824;2023-02-15T05:08:54;101230.69;;;0.58;82.36
74613;BME280;63119;51.788;8.824;2023-02-15T05:11:20;101225.56;;;0.47;82.51
74613;BME280;63119;51.788;8.824;2023-02-15T05:13:45;101229.13;;;0.34;83.03
74613;BME280;63119;51.788;8.824;2023-02-15T05:16:11;101229.09;;;0.40;81.66
74613;BME280;63119;51.788;8.824;2023-02-15T05:18:36;101226.44;;;0.46;82.28
74613;BME280;63119;51.788;8.824;2023-02-15T05:21:01;101219.50;;;0.47;81.65
74613;BME280;63119;51.788;8.824;2023-02-15T05:23:26;101222.16;;;0.41;81.64
74613;BME280;63119;51.788;8.824;2023-02-15T05:25:52;101220.50;;;0.29;81.78
74613;BME280;63119;51.788;8.824;2023-02-15T05:28:37;101221.31;;;0.36;83.39
74613;BME280;63119;51.788;8.824;2023-02-15T05:33:33;101227.31;;;0.47;82.12
74613;BME280;63119;51.788;8.824;2023-02-15T05:35:59;101225.56;;;0.46;81.44
74613;BME280;63119;51.788;8.824;2023-02-15T05:38:24;101222.09;;;0.47;81.32
74613;BME280;63119;51.788;8.824;2023-02-15T05:40:51;101220.41;;;0.40;82.12
74613;BME280;63119;51.788;8.824;2023-02-15T05:43:16;101218.59;;;0.49;83.42
74613;BME280;63119;51.788;8.824;2023-02-15T05:45:54;101215.97;;;0.57;82.79
74613;BME280;63119;51.788;8.824;2023-02-15T05:48:21;101227.16;;;0.68;83.17
74613;BME280;63119;51.788;8.824;2023-02-15T05:50:57;101212.25;;;0.82;82.96
74613;BME280;63119;51.788;8.824;2023-02-15T05:53:23;101214.84;;;0.85;83.33
74613;BME280;63119;51.788;8.824;2023-02-15T05:55:48;101208.78;;;0.83;82.98
74613;BME280;63119;51.788;8.824;2023-02-15T05:58:13;101206.09;;;0.92;83.08
74613;BME280;63119;51.788;8.824;2023-02-15T06:00:38;101212.13;;;0.97;82.86
74613;BME280;63119;51.788;8.824;2023-02-15T06:03:03;101213.72;;;1.14;82.02
74613;BME280;63119;51.788;8.824;2023-02-15T06:05:29;101212.75;;;1.22;81.43
74613;BME280;63119;51.788;8.824;2023-02-15T06:07:54;101211.84;;;1.25;81.43
74613;BME280;63119;51.788;8.824;2023-02-15T06:10:19;101208.47;;;1.17;81.42
74613;BME280;63119;51.788;8.824;2023-02-15T06:12:45;101220.59;;;1.21;80.96
74613;BME280;63119;51.788;8.824;2023-02-15T06:15:10;101219.72;;;1.19;80.92
74613;BME280;63119;51.788;8.824;2023-02-15T06:17:35;101220.56;;;1.22;81.40
74613;BME280;63119;51.788;8.824;2023-02-15T06:20:00;101214.44;;;1.25;81.26
74613;BME280;63119;51.788;8.824;2023-02-15T06:22:26;101211.88;;;1.23;81.27
74613;BME280;63119;51.788;8.824;2023-02-15T06:24:51;101219.75;;;1.17;81.45
74613;BME280;63119;51.788;8.824;2023-02-15T06:27:16;101207.56;;;1.19;81.59
74613;BME280;63119;51.788;8.824;2023-02-15T06:29:41;101212.78;;;1.21;80.94
74613;BME280;63119;51.788;8.824;2023-02-15T06:32:08;101215.41;;;1.16;81.84
74613;BME280;63119;51.788;8.824;2023-02-15T06:34:33;101208.50;;;1.14;81.74
74613;BME280;63119;51.788;8.824;2023-02-15T06:36:58;101212.88;;;1.10;81.99
74613;BME280;63119;51.788;8.824;2023-02-15T06:39:24;101211.16;;;1.09;82.02
74613;BME280;63119;51.788;8.824;2023-02-15T06:41:49;101212.81;;;1.18;81.94
74613;BME280;63119;51.788;8.824;2023-02-15T06:44:14;101214.44;;;1.26;80.58
74613;BME280;63119;51.788;8.824;2023-02-15T06:46:39;101219.69;;;1.22;80.51
74613;BME280;63119;51.788;8.824;2023-02-15T06:49:05;101214.47;;;1.22;80.43
74613;BME280;63119;51.788;8.824;2023-02-15T06:51:30;101224.13;;;1.14;81.61
74613;BME280;63119;51.788;8.824;2023-02-15T06:53:56;101218.81;;;1.26;81.38
74613;BME280;63119;51.788;8.824;2023-02-15T06:56:21;101221.41;;;1.26;81.28
74613;BME280;63119;51.788;8.824;2023-02-15T06:58:46;101223.19;;;1.24;81.10
74613;BME280;63119;51.788;8.824;2023-02-15T07:01:14;101214.50;;;1.23;81.04
74613;BME280;63119;51.788;8.824;2023-02-15T07:03:39;101219.78;;;1.14;81.20
74613;BME280;63119;51.788;8.824;2023-02-15T07:06:04;101221.56;;;1.12;81.39
74613;BME280;63119;51.788;8.824;2023-02-15T07:08:33;101223.38;;;1.01;81.81
74613;BME280;63119;51.788;8.824;2023-02-15T07:10:58;101203.25;;;1.18;81.02
74613;BME280;63119;51.788;8.824;2023-02-15T07:13:43;101205.81;;;1.20;81.07
74613;BME280;63119;51.788;8.824;2023-02-15T07:16:09;101198.94;;;1.14;80.83
74613;BME280;63119;51.788;8.824;2023-02-15T07:18:35;101194.72;;;2.40;77.64
74613;BME280;63119;51.788;8.824;2023-02-15T07:21:00;101196.09;;;6.01;66.97
74613;BME280;63119;51.788;8.824;2023-02-15T07:23:25;101192.88;;;7.74;57.50
74613;BME280;63119;51.788;8.824;2023-02-15T07:25:57;101197.28;;;8.85;53.88
74613;BME280;63119;51.788;8.824;2023-02-15T07:28:23;101191.72;;;9.71;50.95
74613;BME280;63119;51.788;8.824;2023-02-15T07:30:48;101192.88;;;10.59;48.25
74613;BME280;63119;51.788;8.824;2023-02-15T07:33:14;101185.84;;;11.11;46.60
74613;BME280;63119;51.788;8.824;2023-02-15T07:35:54;101182.59;;;12.22;46.65
74613;BME280;63119;51.788;8.824;2023-02-15T07:38:21;101180.91;;;12.66;43.18
74613;BME280;63119;51.788;8.824;2023-02-15T07:40:46;101179.41;;;12.92;41.42
74613;BME280;63119;51.788;8.824;2023-02-15T07:43:12;101182.19;;;13.04;41.27
74613;BME280;63119;51.788;8.824;2023-02-15T07:45:38;101176.81;;;13.78;39.37
74613;BME280;63119;51.788;8.824;2023-02-15T07:48:04;101180.22;;;13.66;39.64
74613;BME280;63119;51.788;8.824;2023-02-15T07:50:30;101182.94;;;14.21;39.19
74613;BME280;63119;51.788;8.824;2023-02-15T07:52:55;101184.94;;;14.17;38.71
74613;BME280;63119;51.788;8.824;2023-02-15T07:55:21;101175.47;;;14.81;37.37
74613;BME280;63119;51.788;8.824;2023-02-15T07:57:48;101175.59;;;14.80;36.72
74613;BME280;63119;51.788;8.824;2023-02-15T08:00:14;101176.19;;;14.44;37.75
74613;BME280;63119;51.788;8.824;2023-02-15T08:02:40;101168.44;;;15.19;36.34
74613;BME280;63119;51.788;8.824;2023-02-15T08:05:06;101156.97;;;15.05;36.90
74613;BME280;63119;51.788;8.824;2023-02-15T08:07:32;101161.34;;;14.40;37.56
74613;BME280;63119;51.788;8.824;2023-02-15T08:09:57;101168.03;;;14.33;38.32
74613;BME280;63119;51.788;8.824;2023-02-15T08:12:25;101164.19;;;14.90;37.45
74613;BME280;63119;51.788;8.824;2023-02-15T08:14:51;101173.78;;;14.93;36.40
74613;BME280;63119;51.788;8.824;2023-02-15T08:17:16;101161.03;;;14.98;36.66
74613;BME280;63119;51.788;8.824;2023-02-15T08:19:41;101169.69;;;13.79;38.80
74613;BME280;63119;51.788;8.824;2023-02-15T08:22:07;101167.00;;;14.07;38.15
74613;BME280;63119;51.788;8.824;2023-02-15T08:24:36;101154.06;;;11.11;44.58
74613;BME280;63119;51.788;8.824;2023-02-15T08:27:02;101159.56;;;9.62;50.15
74613;BME280;63119;51.788;8.824;2023-02-15T08:29:30;101155.81;;;8.66;52.57
74613;BME280;63119;51.788;8.824;2023-02-15T08:31:58;101152.56;;;9.02;52.35
74613;BME280;63119;51.788;8.824;2023-02-15T08:34:24;101148.88;;;9.26;52.83
74613;BME280;63119;51.788;8.824;2023-02-15T08:36:49;101147.25;;;8.40;55.36
74613;BME280;63119;51.788;8.824;2023-02-15T08:39:15;101158.25;;;7.84;56.66
74613;BME280;63119;51.788;8.824;2023-02-15T08:41:45;101144.09;;;8.73;55.01
74613;BME280;63119;51.788;8.824;2023-02-15T08:44:11;101152.75;;;8.97;54.02
74613;BME280;63119;51.788;8.824;2023-02-15T08:46:38;101152.00;;;8.53;54.59
74613;BME280;63119;51.788;8.824;2023-02-15T08:49:04;101139.47;;;9.19;54.30
74613;BME280;63119;51.788;8.824;2023-02-15T08:51:32;101144.75;;;12.79;44.56
74613;BME280;63119;51.788;8.824;2023-02-15T08:54:02;101141.84;;;13.42;41.17
74613;BME280;63119;51.788;8.824;2023-02-15T08:56:29;101137.34;;;13.99;40.51
74613;BME280;63119;51.788;8.824;2023-02-15T08:58:56;101127.34;;;15.09;38.40
74613;BME280;63119;51.788;8.824;2023-02-15T09:01:24;101125.41;;;14.99;38.04
74613;BME280;63119;51.788;8.824;2023-02-15T09:03:55;101130.38;;;13.69;40.06
74613;BME280;63119;51.788;8.824;2023-02-15T09:06:22;101127.63;;;11.27;45.58
74613;BME280;63119;51.788;8.824;2023-02-15T09:08:48;101127.16;;;10.50;49.47
74613;BME280;63119;51.788;8.824;2023-02-15T09:11:19;101124.97;;;10.41;50.28
74613;BME280;63119;51.788;8.824;2023-02-15T09:13:56;101134.47;;;9.91;51.24
74613;BME280;63119;51.788;8.824;2023-02-15T09:16:23;101130.44;;;10.01;52.11
74613;BME280;63119;51.788;8.824;2023-02-15T09:18:49;101124.06;;;10.05;51.20
74613;BME280;63119;51.788;8.824;2023-02-15T09:21:17;101126.22;;;11.20;49.72
74613;BME280;63119;51.788;8.824;2023-02-15T09:23:44;101114.44;;;11.42;48.42
74613;BME280;63119;51.788;8.824;2023-02-15T09:26:12;101108.91;;;11.63;48.50
74613;BME280;63119;51.788;8.824;2023-02-15T09:28:38;101116.13;;;12.07;46.79
74613;BME280;63119;51.788;8.824;2023-02-15T09:33:35;101120.94;;;12.01;46.13
74613;BME280;63119;51.788;8.824;2023-02-15T09:36:00;101123.16;;;11.93;45.68
74613;BME280;63119;51.788;8.824;2023-02-15T09:38:26;101118.97;;;12.36;45.86
74613;BME280;63119;51.788;8.824;2023-02-15T09:47:01;101120.56;;;12.54;45.35
74613;BME280;63119;51.788;8.824;2023-02-15T09:49:50;101120.16;;;12.30;45.71
74613;BME280;63119;51.788;8.824;2023-02-15T09:52:44;101114.19;;;12.86;45.54
74613;BME280;63119;51.788;8.824;2023-02-15T09:58:10;101118.22;;;12.93;45.88
74613;BME280;63119;51.788;8.824;2023-02-15T10:06:28;101112.78;;;13.53;45.40
74613;BME280;63119;51.788;8.824;2023-02-15T10:09:12;101107.22;;;13.43;43.90
74613;BME280;63119;51.788;8.824;2023-02-15T10:14:37;101113.53;;;13.41;43.81
74613;BME280;63119;51.788;8.824;2023-02-15T10:19:54;101110.63;;;12.42;44.98
74613;BME280;63119;51.788;8.824;2023-02-15T10:27:48;101106.16;;;12.13;46.17
74613;BME280;63119;51.788;8.824;2023-02-15T10:30:33;101099.41;;;11.91;47.66
74613;BME280;63119;51.788;8.824;2023-02-15T10:33:04;101102.28;;;12.34;45.68
74613;BME280;63119;51.788;8.824;2023-02-15T10:50:25;101087.50;;;12.74;45.19
74613;BME280;63119;51.788;8.824;2023-02-15T10:56:01;101091.47;;;12.37;46.10
74613;BME280;63119;51.788;8.824;2023-02-15T11:07:08;101081.63;;;12.39;43.34
74613;BME280;63119;51.788;8.824;2023-02-15T11:09:41;101082.84;;;11.86;44.64
74613;BME280;63119;51.788;8.824;2023-02-15T11:12:11;101076.16;;;12.56;46.12
74613;BME280;63119;51.788;8.824;2023-02-15T11:14:44;101075.09;;;12.44;43.65
74613;BME280;63119;51.788;8.824;2023-02-15T11:17:16;101074.66;;;12.52;43.78
74613;BME280;63119;51.788;8.824;2023-02-15T11:19:55;101077.53;;;12.63;43.58
74613;BME280;63119;51.788;8.824;2023-02-15T11:22:23;101070.94;;;12.84;44.91
74613;BME280;63119;51.788;8.824;2023-02-15T11:24:49;101076.09;;;12.28;44.27
74613;BME280;63119;51.788;8.824;2023-02-15T11:27:24;101074.69;;;12.66;43.28
74613;BME280;63119;51.788;8.824;2023-02-15T11:29:57;101073.59;;;12.84;41.89
74613;BME280;63119;51.788;8.824;2023-02-15T11:32:29;101067.94;;;13.04;42.64
74613;BME280;63119;51.788;8.824;2023-02-15T11:37:57;101067.81;;;13.22;42.42
74613;BME280;63119;51.788;8.824;2023-02-15T11:40:34;101067.81;;;12.48;43.53
74613;BME280;63119;51.788;8.824;2023-02-15T11:43:13;101054.16;;;12.84;44.33
74613;BME280;63119;51.788;8.824;2023-02-15T11:45:41;101066.88;;;12.93;43.25
74613;BME280;63119;51.788;8.824;2023-02-15T11:48:12;101064.25;;;13.07;42.45
74613;BME280;63119;51.788;8.824;2023-02-15T11:50:39;101069.03;;;12.42;43.59
74613;BME280;63119;51.788;8.824;2023-02-15T11:53:12;101069.66;;;13.05;43.78
74613;BME280;63119;51.788;8.824;2023-02-15T11:55:38;101069.31;;;13.11;43.86
74613;BME280;63119;51.788;8.824;2023-02-15T11:58:23;101062.78;;;12.87;42.99
74613;BME280;63119;51.788;8.824;2023-02-15T12:01:14;101058.41;;;12.86;43.47
74613;BME280;63119;51.788;8.824;2023-02-15T12:06:18;101047.28;;;12.80;43.91
74613;BME280;63119;51.788;8.824;2023-02-15T12:08:51;101046.09;;;12.85;43.58
74613;BME280;63119;51.788;8.824;2023-02-15T12:11:22;101053.41;;;12.96;44.34
74613;BME280;63119;51.788;8.824;2023-02-15T12:14:28;101045.13;;;12.72;43.43
74613;BME280;63119;51.788;8.824;2023-02-15T12:16:48;101046.72;;;13.19;42.37
74613;BME280;63119;51.788;8.824;2023-02-15T12:19:31;101039.94;;;13.69;41.53
74613;BME280;63119;51.788;8.824;2023-02-15T12:21:58;101035.16;;;14.01;43.50
74613;BME280;63119;51.788;8.824;2023-02-15T12:24:30;101031.31;;;13.52;43.28
74613;BME280;63119;51.788;8.824;2023-02-15T12:27:04;101030.66;;;13.89;42.69
74613;BME280;63119;51.788;8.824;2023-02-15T12:29:35;101027.59;;;13.54;43.26
74613;BME280;63119;51.788;8.824;2023-02-15T12:32:05;101033.66;;;13.71;41.84
74613;BME280;63119;51.788;8.824;2023-02-15T12:34:38;101019.75;;;13.39;44.11
74613;BME280;63119;51.788;8.824;2023-02-15T12:37:15;101019.25;;;13.60;43.00
74613;BME280;63119;51.788;8.824;2023-02-15T12:39:56;101016.50;;;14.15;43.08
74613;BME280;63119;51.788;8.824;2023-02-15T12:42:23;101003.63;;;13.95;42.23
74613;BME280;63119;51.788;8.824;2023-02-15T12:47:22;101000.22;;;13.93;41.79
74613;BME280;63119;51.788;8.824;2023-02-15T12:50:23;100997.16;;;13.46;42.09
74613;BME280;63119;51.788;8.824;2023-02-15T12:52:50;100998.50;;;13.25;43.79
74613;BME280;63119;51.788;8.824;2023-02-15T12:55:23;100992.00;;;13.57;43.41
74613;BME280;63119;51.788;8.824;2023-02-15T12:57:49;100996.28;;;14.13;42.24
74613;BME280;63119;51.788;8.824;2023-02-15T13:00:29;100983.75;;;14.28;42.46
74613;BME280;63119;51.788;8.824;2023-02-15T13:02:57;100986.44;;;14.01;41.80
74613;BME280;63119;51.788;8.824;2023-02-15T13:05:37;100978.94;;;13.93;43.36
74613;BME280;63119;51.788;8.824;2023-02-15T13:08:09;100965.31;;;14.24;43.38
74613;BME280;63119;51.788;8.824;2023-02-15T13:13:24;100962.28;;;14.68;41.64
74613;BME280;63119;51.788;8.824;2023-02-15T13:15:51;100958.06;;;14.27;41.39
74613;BME280;63119;51.788;8.824;2023-02-15T13:18:30;100958.06;;;14.27;40.86
74613;BME280;63119;51.788;8.824;2023-02-15T13:20:57;100955.06;;;14.58;41.83
74613;BME280;63119;51.788;8.824;2023-02-15T13:23:28;100953.16;;;14.20;41.74
74613;BME280;63119;51.788;8.824;2023-02-15T13:25:56;100950.91;;;14.14;42.87
74613;BME280;63119;51.788;8.824;2023-02-15T13:28:26;100954.25;;;14.31;42.10
74613;BME280;63119;51.788;8.824;2023-02-15T13:30:53;100954.00;;;14.21;42.40
74613;BME280;63119;51.788;8.824;2023-02-15T13:33:33;100950.47;;;14.60;41.62
74613;BME280;63119;51.788;8.824;2023-02-15T13:36:39;100956.56;;;14.62;42.15
74613;BME280;63119;51.788;8.824;2023-02-15T13:39:24;100944.28;;;14.47;42.79
74613;BME280;63119;51.788;8.824;2023-02-15T13:47:50;100931.31;;;14.67;43.77
74613;BME280;63119;51.788;8.824;2023-02-15T13:55:57;100921.16;;;14.72;42.82
74613;BME280;63119;51.788;8.824;2023-02-15T13:59:00;100930.44;;;14.67;42.42
74613;BME280;63119;51.788;8.824;2023-02-15T14:10:46;100929.28;;;14.46;43.84
74613;BME280;63119;51.788;8.824;2023-02-15T14:18:49;100926.69;;;13.65;46.44
74613;BME280;63119;51.788;8.824;2023-02-15T14:21:34;100919.50;;;13.67;48.09
74613;BME280;63119;51.788;8.824;2023-02-15T14:24:41;100912.47;;;13.66;48.24
74613;BME280;63119;51.788;8.824;2023-02-15T14:27:43;100911.47;;;13.28;48.57
74613;BME280;63119;51.788;8.824;2023-02-15T14:30:25;100905.53;;;13.37;47.98
74613;BME280;63119;51.788;8.824;2023-02-15T14:32:54;100907.53;;;13.34;48.47
74613;BME280;63119;51.788;8.824;2023-02-15T14:35:24;100903.69;;;13.52;49.06
74613;BME280;63119;51.788;8.824;2023-02-15T14:43:40;100901.81;;;13.13;50.59
74613;BME280;63119;51.788;8.824;2023-02-15T14:46:19;100896.78;;;12.94;51.90
74613;BME280;63119;51.788;8.824;2023-02-15T14:48:58;100893.72;;;13.14;51.78
74613;BME280;63119;51.788;8.824;2023-02-15T14:59:27;100897.06;;;12.76;53.01
74613;BME280;63119;51.788;8.824;2023-02-15T15:04:34;100905.56;;;12.52;54.48
74613;BME280;63119;51.788;8.824;2023-02-15T15:07:07;100900.28;;;12.52;54.51
74613;BME280;63119;51.788;8.824;2023-02-15T15:09:37;100903.41;;;12.45;54.60
74613;BME280;63119;51.788;8.824;2023-02-15T15:14:49;100894.41;;;12.33;55.61
74613;BME280;63119;51.788;8.824;2023-02-15T15:20:36;100889.84;;;12.21;55.99